Create Custom Reports and Graphics: Custom Report

Latest Observations

Map

15 Minute Data

Lodi West

Latest Observations

15 Minute Data | America/Los_Angeles
as of 12/10/18 7:40 AM PST
Station Date Time Temp (°F) Dew Pt (°F) RH (%) Wind Dir (°) Wind Spd (mph) Wind Gust (mph) Latest Rain (In) Daily Rain (In) Daily Min Temp (°F) Daily Max Temp (°F) Day
Utter - Wilson 12/10/18 0730 45.5   1.3 45.2   1.0 99   1 NW | 317 2.8   0.8 4.3   0.1 0.00 0.00 43.2   2.0 45.6   1.3 12/10/18
Clarksburg (CLK) 12/10/18 0730 45.4   0.9 45.4   0.9 100   0 WNW | 292 0.7   1.8 2.0   3.0 0.00 0.00 43.2   2.0 45.6   0.9 12/10/18
Gorter - Wilson 12/10/18 0730 44.5   0.6 44.6   0.6 100   0 WSW | 258 0.7   2.0 1.5   4.0 0.00 0.00 42.3   1.8 44.8   0.8 12/10/18
Hood (HOD) 12/10/18 0730 45.7   0.9 45.7   0.9 100   0 WNW | 289 1.1   2.4 2.4   3.6 0.00 0.00 43.6   2.5 46.0   1.0 12/10/18
Courtland-C3 12/10/18 0730 43.6   0.2 43.7   0.2 100   0 WNW | 282 2.0   3.0 3.0   4.4 0.00 0.00 40.4   1.4 44.4   0.7 12/10/18
Pacific Fruit 12/10/18 0730 45.7   0.2 45.5   0.1 99   1 WNW | 283 1.4   3.7 2.7   4.8 0.00 0.00 43.9   0.1 46.1   0.4 12/10/18
Ryer Island South (RIS) 12/10/18 0730 44.9   0.8 44.8   0.8 99   0 WNW | 284 1.4   1.0 3.0   2.4 0.00 0.00 42.4   2.3 45.9   0.4 12/10/18
Guard Rd (Lodi WSW) 12/10/18 0730 46.5   0.2 46.1   0.5 98   1 WNW | 291 2.8   0.3 5.2   0.5 0.00 0.00 45.7   2.2 47.1   0.1 12/10/18
Claussen 12/10/18 0730 47.0   0.9 46.6   0.5 99   1 NW | 306 0.8   0.6 2.5   1.2 0.00 0.00 43.6   1.8 47.0   0.3 12/10/18

Lodi Central

Latest Observations

15 Minute Data | America/Los_Angeles
as of 12/10/18 7:40 AM PST
Station Date Time Temp (°F) Dew Pt (°F) RH (%) Wind Dir (°) Wind Spd (mph) Wind Gust (mph) Latest Rain (In) Daily Rain (In) Daily Min Temp (°F) Daily Max Temp (°F) Day
Galt West (GAW) 12/10/18 0730 45.5   0.7 44.7   0.3 97   2 WNW | 289 3.3   0.0 5.6   0.7 0.00 0.00 41.4   0.4 47.1   2.0 12/10/18
Valley Oak 12/10/18 0700 46.0   1.6 45.8   1.4 99   1 NW | 309 1.5   0.5 3.3   0.7 0.00 0.00 40.1   2.2 46.3   1.5 12/10/18
Thornton 12/8/18 1545 59.1   0.8 44.3   1.8 58   2 NNW | 342 0.0   1.2 2.1   3.4 0.00 0.00 33.7   0.3 60.1   1.2 12/8/18
Kost Rd 12/10/18 0730 46.6   1.5 46.6   1.4 100   0 W | 271 2.3   0.2 3.3   0.5 0.00 0.00 43.0   0.2 46.7   1.3 12/10/18
DeVries Road-North 12/10/18 0730 45.9   1.4 45.3   0.8 98   2 W | 264 1.3   2.7 2.7   3.6 0.00 0.00 44.5   2.6 46.0   1.4 12/10/18
Lodi (LangeTwins) 12/10/18 0730 46.5   1.0 45.1   0.1 95   4 WSW | 255 1.1   0.6 2.7   0.7 0.00 0.00 45.2   2.4 46.6   1.0 12/10/18
Acampo (ACP) 12/10/18 0730 46.8   0.6 45.5   0.7 95   5 N | 0 0.0   1.5 0.0   3.8 0.00 0.00 46.0   2.9 46.8   0.6 12/10/18
Lodi West (MDW) 12/10/18 0700 46.8   0.7 46.0   0.1 97   3 WNW | 300 1.1   0.5 2.6   0.7 0.00 0.00 45.2   2.0 47.1   0.6 12/10/18

Latest Observation

19 Stations

15 Minute Data | America/Los_Angeles
as of 12/10/18 7:40 AM PST
Station Date Time Temp (°F) Dew Pt (°F) RH (%) Wind Spd (mph) Wind Dir (°) Wind Gust (mph) Latest Rain (In) Daily Rain (In) Daily Min Temp (°F) Daily Max Temp (°F) Day
Borden Hills 12/10/18 0730 45.8   0.8 45.8   1.8 100   4 2.3   2.3 ENE | 62 4.4   3.0 0.00 0.00 40.1   3.5 46.0   0.1 12/10/18
Collegeville (COL) 12/10/18 0730 46.7   1.5 45.3   1.3 95   1 4.0   0.1 NW | 325 7.6   0.3 0.00 0.00 45.4   0.4 47.0   1.5 12/10/18
Galt-East (EGT) 12/10/18 0730 45.6   0.1 45.1   0.5 98   2 0.6   2.7 NNW | 327 2.0   4.2 0.00 0.00 43.3   4.1 45.9   2.4 12/10/18
Escalon (ESL) 12/10/18 0730 47.1   1.8 46.1   2.2 96   2 2.5   1.0 NW | 313 5.0   1.5 0.00 0.00 46.9   1.2 47.9   1.1 12/10/18
Victor - N (Katusha) 12/10/18 0730 45.9   0.6 44.7   1.7 96   4 0.0   1.1 WNW | 289 1.7   1.3 0.00 0.00 44.4   1.5 46.9   0.5 12/10/18
Gilbeau Ranch 12/10/18 0700 45.8   0.8 45.3   0.4 98   2 0.5   0.4 N | 6 2.2   0.4 0.00 0.00 43.2   3.8 46.0   1.1 12/10/18
Lodi 12/10/18 0330 46.0 45.5 98 1.6 W | 261 3.6 0.00 0.00 45.8 46.4 12/10/18
Lockeford (LOC) 12/10/18 0730 46.2   0.7 46.2   0.7 100   0 1.4   2.0 N | 349 4.6   0.8 0.00 0.00 44.7   2.8 46.7   0.9 12/10/18
Lone Oak-L28 12/10/18 0730 44.6   1.0 44.3   0.7 99   1 2.9   1.0 NW | 320 5.7   1.3 0.00 0.00 44.1   1.8 45.8   2.6 12/10/18
Sheldon (SHL) 12/10/18 0730 46.3   2.6 46.0   2.3 99   1 0.0   0.5 N | 0 0.0   2.4 0.00 0.00 39.4   2.5 46.4   2.6 12/10/18
Sierra Loma-L27 12/10/18 0730 45.5   1.0 45.5   1.8 100   3 0.9   2.3 NNE | 25 2.0   3.6 0.00 0.00 39.5   3.1 45.6   0.3 12/10/18
Simmerhorn (SIM) 12/10/18 0730 45.6   0.7 43.7   0.2 93   3 - - - - - 39.8   1.2 45.8   0.1 12/10/18
Sloughhouse (SLH) 12/10/18 0730 44.8   2.5 44.6   3.6 99   4 0.0   0.0 N | 0 0.0   0.0 0.00 0.00 37.0   4.5 45.3   2.7 12/10/18
5 Wells 12/10/18 0730 45.8   0.1 45.8   0.1 100   0 0.0   3.1 N | 354 0.7   4.2 0.00 0.00 42.7   3.1 45.9   0.0 12/10/18